Relatórios de METAR próximas

 

LPAR - Alverca, Portugal
Distance from station: S 38km
Actualizado: 29/10/2020 13:00
Few Clouds
Few Clouds
 Vento de NE
Vento: NE 9 km/h
Temperatura: 21°C
Ponto de Orvalho: 11°C
Humidade: 53%
Barómetro: 1025 hPa
Nuvens: Few Clouds
Visibilidade: 10 km
Cloud details: Few Clouds 671 m
2020/10/29 13:00 LPAR 291300Z 05005KT 9999 FEW022 21/11 Q1025
LPPT - Lisbon/Portela, Portugal
Distance from station: S 52km
Actualizado: 29/10/2020 13:00
Few Clouds
Few Clouds
 Vento de E
Vento: E 6 km/h
Temperatura: 20°C
Ponto de Orvalho: 11°C
Humidade: 56%
Barómetro: 1025 hPa
Nuvens: Few Clouds
Visibilidade: 10 km
Cloud details: Few Clouds 1006 m
2020/10/29 13:00 LPPT 291300Z 08003KT 350V160 9999 FEW033 20/11 Q1025
 
LPST - Sintra/Granja (a, Portugal
Distance from station: SSO 53km
Actualizado: 29/10/2020 13:00
Few Clouds
Few Clouds
 Vento de ONO
Vento: ONO 13 km/h
Temperatura: 20°C
Ponto de Orvalho: 11°C
Humidade: 56%
Barómetro: 1025 hPa
Nuvens: Few Clouds
Visibilidade: 10 km
Cloud details: Few Clouds 457 m
2020/10/29 13:00 LPST 291300Z 30007KT 260V330 9999 FEW015 20/11 Q1025
LPMT - Montijo (por-Afb, Portugal
Distance from station: S 59km
Actualizado: 29/10/2020 13:00
Few Clouds
Few Clouds
 Vento de N
Vento: N 13 km/h
Temperatura: 20°C
Ponto de Orvalho: 14°C
Humidade: 69%
Barómetro: 1025 hPa
Nuvens: Few Clouds
Visibilidade: 10 km
Cloud details: Few Clouds 1067 m
2020/10/29 13:00 LPMT 291300Z 35007KT 320V020 9999 FEW035 20/14 Q1025
 
LPCS - Cascais, Portugal
Distance from station: SSO 63km
Actualizado: 29/10/2020 13:00
Few Clouds
Few Clouds
 Vento de SSO
Vento: SSO 13 km/h
Temperatura: 20°C
Ponto de Orvalho: 13°C
Humidade: 64%
Barómetro: 1025 hPa
Nuvens: Few Clouds
Visibilidade: 10 km
Cloud details: Few Clouds 518 m
2020/10/29 13:00 LPCS 291300Z 21007KT 9999 FEW017 20/13 Q1025
LPMR - Monte Real(Por-A, Portugal
Distance from station: N 67km
Actualizado: 29/10/2020 13:00
Parc. Nublado
Parc. Nublado
 Vento de ONO
Vento: ONO 9 km/h
Temperatura: 19°C
Ponto de Orvalho: 10°C
Humidade: 56%
Barómetro: 1025 hPa
Nuvens: Parc. Nublado
Visibilidade: 10 km
Cloud details: Parc. Nublado 1067 m
2020/10/29 13:00 LPMR 291300Z 29005KT 260V320 9999 SCT035 19/10 Q1025